sensor_id;sensor_type;location;lat;lon;timestamp;pressure;altitude;pressure_sealevel;temperature;humidity
38716;BME280;24833;49.324;8.694;2023-04-22T00:00:05;99103.13;;;13.05;68.33
38716;BME280;24833;49.324;8.694;2023-04-22T00:02:34;99101.59;;;13.09;67.85
38716;BME280;24833;49.324;8.694;2023-04-22T00:05:04;99097.44;;;13.13;68.09
38716;BME280;24833;49.324;8.694;2023-04-22T00:07:33;99094.88;;;13.18;67.72
38716;BME280;24833;49.324;8.694;2023-04-22T00:09:59;99093.63;;;13.21;67.48
38716;BME280;24833;49.324;8.694;2023-04-22T00:12:26;99094.00;;;13.24;67.61
38716;BME280;24833;49.324;8.694;2023-04-22T00:14:53;99097.84;;;13.28;67.29
38716;BME280;24833;49.324;8.694;2023-04-22T00:17:20;99094.47;;;13.33;67.00
38716;BME280;24833;49.324;8.694;2023-04-22T00:19:47;99089.47;;;13.36;67.41
38716;BME280;24833;49.324;8.694;2023-04-22T00:22:14;99095.44;;;13.39;67.02
38716;BME280;24833;49.324;8.694;2023-04-22T00:24:41;99099.16;;;13.38;66.78
38716;BME280;24833;49.324;8.694;2023-04-22T00:27:08;99100.78;;;13.39;66.97
38716;BME280;24833;49.324;8.694;2023-04-22T00:29:35;99091.13;;;13.38;67.37
38716;BME280;24833;49.324;8.694;2023-04-22T00:32:03;99099.16;;;13.38;66.94
38716;BME280;24833;49.324;8.694;2023-04-22T00:34:30;99088.44;;;13.38;67.01
38716;BME280;24833;49.324;8.694;2023-04-22T00:36:57;99096.47;;;13.38;67.20
38716;BME280;24833;49.324;8.694;2023-04-22T00:39:24;99095.44;;;13.39;67.14
38716;BME280;24833;49.324;8.694;2023-04-22T00:41:51;99095.44;;;13.39;67.59
38716;BME280;24833;49.324;8.694;2023-04-22T00:44:19;99088.44;;;13.38;67.43
38716;BME280;24833;49.324;8.694;2023-04-22T00:46:46;99086.56;;;13.38;67.06
38716;BME280;24833;49.324;8.694;2023-04-22T00:49:15;99091.13;;;13.38;67.31
38716;BME280;24833;49.324;8.694;2023-04-22T00:51:42;99093.81;;;13.38;67.27
38716;BME280;24833;49.324;8.694;2023-04-22T00:54:09;99085.97;;;13.36;67.61
38716;BME280;24833;49.324;8.694;2023-04-22T00:56:37;99090.50;;;13.35;67.17
38716;BME280;24833;49.324;8.694;2023-04-22T00:59:05;99095.06;;;13.35;67.14
38716;BME280;24833;49.324;8.694;2023-04-22T01:01:33;99095.28;;;13.33;67.64
38716;BME280;24833;49.324;8.694;2023-04-22T01:04:02;99085.63;;;13.32;67.42
38716;BME280;24833;49.324;8.694;2023-04-22T01:06:30;99093.06;;;13.30;67.41
38716;BME280;24833;49.324;8.694;2023-04-22T01:08:58;99095.16;;;13.28;67.34
38716;BME280;24833;49.324;8.694;2023-04-22T01:11:25;99092.94;;;13.25;67.64
38716;BME280;24833;49.324;8.694;2023-04-22T01:13:52;99085.97;;;13.24;67.19
38716;BME280;24833;49.324;8.694;2023-04-22T01:16:19;99083.50;;;13.23;67.61
38716;BME280;24833;49.324;8.694;2023-04-22T01:18:47;99095.50;;;13.20;67.74
38716;BME280;24833;49.324;8.694;2023-04-22T01:21:14;99091.16;;;13.19;67.79
38716;BME280;24833;49.324;8.694;2023-04-22T01:23:42;99090.53;;;13.17;67.25
38716;BME280;24833;49.324;8.694;2023-04-22T01:26:09;99089.97;;;13.15;67.55
38716;BME280;24833;49.324;8.694;2023-04-22T01:28:37;99092.66;;;13.15;67.70
38716;BME280;24833;49.324;8.694;2023-04-22T01:31:04;99093.69;;;13.14;68.04
38716;BME280;24833;49.324;8.694;2023-04-22T01:33:31;99090.44;;;13.12;68.08
38716;BME280;24833;49.324;8.694;2023-04-22T01:35:59;99099.53;;;13.11;67.88
38716;BME280;24833;49.324;8.694;2023-04-22T01:38:26;99090.88;;;13.09;67.84
38716;BME280;24833;49.324;8.694;2023-04-22T01:40:54;99097.53;;;13.06;68.11
38716;BME280;24833;49.324;8.694;2023-04-22T01:43:22;99097.53;;;13.06;68.10
38716;BME280;24833;49.324;8.694;2023-04-22T01:45:49;99096.13;;;13.04;67.77
38716;BME280;24833;49.324;8.694;2023-04-22T01:48:16;99097.97;;;13.03;67.93
38716;BME280;24833;49.324;8.694;2023-04-22T01:50:43;99097.16;;;13.03;68.14
38716;BME280;24833;49.324;8.694;2023-04-22T01:53:12;99097.16;;;13.03;68.06
38716;BME280;24833;49.324;8.694;2023-04-22T01:55:40;99101.50;;;13.04;67.78
38716;BME280;24833;49.324;8.694;2023-04-22T01:58:12;99100.44;;;13.05;67.94
38716;BME280;24833;49.324;8.694;2023-04-22T02:00:40;99096.13;;;13.04;67.91
38716;BME280;24833;49.324;8.694;2023-04-22T02:03:07;99095.91;;;13.05;67.96
38716;BME280;24833;49.324;8.694;2023-04-22T02:05:35;99107.44;;;13.06;67.57
38716;BME280;24833;49.324;8.694;2023-04-22T02:08:02;99103.72;;;13.07;67.75
38716;BME280;24833;49.324;8.694;2023-04-22T02:10:29;99110.13;;;13.06;67.65
38716;BME280;24833;49.324;8.694;2023-04-22T02:12:57;99110.13;;;13.06;67.62
38716;BME280;24833;49.324;8.694;2023-04-22T02:15:25;99107.44;;;13.06;67.84
38716;BME280;24833;49.324;8.694;2023-04-22T02:17:53;99107.44;;;13.06;67.70
38716;BME280;24833;49.324;8.694;2023-04-22T02:20:20;99107.44;;;13.06;68.07
38716;BME280;24833;49.324;8.694;2023-04-22T02:22:47;99101.25;;;13.05;67.91
38716;BME280;24833;49.324;8.694;2023-04-22T02:25:18;99096.94;;;13.04;67.60
38716;BME280;24833;49.324;8.694;2023-04-22T02:27:45;99097.75;;;13.05;68.22
38716;BME280;24833;49.324;8.694;2023-04-22T02:30:14;99107.44;;;13.06;67.70
38716;BME280;24833;49.324;8.694;2023-04-22T02:32:41;99102.88;;;13.06;68.22
38716;BME280;24833;49.324;8.694;2023-04-22T02:35:10;99095.66;;;13.07;68.13
38716;BME280;24833;49.324;8.694;2023-04-22T02:37:37;99091.34;;;13.06;67.74
38716;BME280;24833;49.324;8.694;2023-04-22T02:40:05;99099.41;;;13.06;67.99
38716;BME280;24833;49.324;8.694;2023-04-22T02:42:33;99100.44;;;13.05;67.99
38716;BME280;24833;49.324;8.694;2023-04-22T02:45:01;99106.84;;;13.04;68.01
38716;BME280;24833;49.324;8.694;2023-04-22T02:47:28;99107.88;;;13.03;67.88
38716;BME280;24833;49.324;8.694;2023-04-22T02:49:55;99106.25;;;13.02;68.29
38716;BME280;24833;49.324;8.694;2023-04-22T02:52:22;99105.66;;;13.00;68.03
38716;BME280;24833;49.324;8.694;2023-04-22T02:54:49;99109.97;;;13.01;67.67
38716;BME280;24833;49.324;8.694;2023-04-22T02:57:16;99108.34;;;13.00;67.82
38716;BME280;24833;49.324;8.694;2023-04-22T02:59:43;99096.81;;;12.99;67.93
38716;BME280;24833;49.324;8.694;2023-04-22T03:02:12;99101.34;;;12.99;68.00
38716;BME280;24833;49.324;8.694;2023-04-22T03:05:03;99100.75;;;12.97;67.82
38716;BME280;24833;49.324;8.694;2023-04-22T03:07:30;99103.41;;;12.97;68.31
38716;BME280;24833;49.324;8.694;2023-04-22T03:09:58;99112.50;;;12.96;68.02
38716;BME280;24833;49.324;8.694;2023-04-22T03:12:25;99115.19;;;12.96;68.04
38716;BME280;24833;49.324;8.694;2023-04-22T03:14:52;99118.09;;;12.94;68.14
38716;BME280;24833;49.324;8.694;2023-04-22T03:17:21;99116.47;;;12.93;68.11
38716;BME280;24833;49.324;8.694;2023-04-22T03:19:49;99111.34;;;12.92;68.35
38716;BME280;24833;49.324;8.694;2023-04-22T03:22:16;99110.53;;;12.91;68.39
38716;BME280;24833;49.324;8.694;2023-04-22T03:24:43;99114.59;;;12.94;68.04
38716;BME280;24833;49.324;8.694;2023-04-22T03:27:10;99117.88;;;12.96;67.93
38716;BME280;24833;49.324;8.694;2023-04-22T03:29:38;99115.81;;;12.98;68.08
38716;BME280;24833;49.324;8.694;2023-04-22T03:32:06;99111.03;;;13.00;67.58
38716;BME280;24833;49.324;8.694;2023-04-22T03:34:34;99103.56;;;13.02;67.53
38716;BME280;24833;49.324;8.694;2023-04-22T03:37:04;99094.72;;;13.01;67.50
38716;BME280;24833;49.324;8.694;2023-04-22T03:39:31;99099.63;;;13.04;67.90
38716;BME280;24833;49.324;8.694;2023-04-22T03:41:58;99099.63;;;13.04;67.61
38716;BME280;24833;49.324;8.694;2023-04-22T03:44:25;99099.63;;;13.04;67.84
38716;BME280;24833;49.324;8.694;2023-04-22T03:46:54;99102.31;;;13.04;67.89
38716;BME280;24833;49.324;8.694;2023-04-22T03:49:26;99100.06;;;13.01;67.46
38716;BME280;24833;49.324;8.694;2023-04-22T03:51:54;99101.94;;;13.01;67.70
38716;BME280;24833;49.324;8.694;2023-04-22T03:54:26;99103.78;;;13.00;67.65
38716;BME280;24833;49.324;8.694;2023-04-22T03:56:54;99092.25;;;13.00;67.71
38716;BME280;24833;49.324;8.694;2023-04-22T03:59:22;99097.03;;;12.98;67.39
38716;BME280;24833;49.324;8.694;2023-04-22T04:01:50;99089.22;;;12.96;67.58
38716;BME280;24833;49.324;8.694;2023-04-22T04:04:20;99095.63;;;12.95;67.94
38716;BME280;24833;49.324;8.694;2023-04-22T04:06:55;99087.00;;;12.93;67.66
38716;BME280;24833;49.324;8.694;2023-04-22T04:09:22;99091.78;;;12.91;68.13
38716;BME280;24833;49.324;8.694;2023-04-22T04:11:49;99086.63;;;12.90;67.62
38716;BME280;24833;49.324;8.694;2023-04-22T04:14:16;99086.03;;;12.88;67.91
38716;BME280;24833;49.324;8.694;2023-04-22T04:16:49;99093.50;;;12.86;67.78
38716;BME280;24833;49.324;8.694;2023-04-22T04:19:24;99096.63;;;12.82;68.29
38716;BME280;24833;49.324;8.694;2023-04-22T04:21:51;99091.50;;;12.81;68.22
38716;BME280;24833;49.324;8.694;2023-04-22T04:24:19;99096.25;;;12.79;68.15
38716;BME280;24833;49.324;8.694;2023-04-22T04:26:49;99087.19;;;12.80;68.60
38716;BME280;24833;49.324;8.694;2023-04-22T04:29:21;99093.34;;;12.80;68.18
38716;BME280;24833;49.324;8.694;2023-04-22T04:32:02;99091.72;;;12.79;68.28
38716;BME280;24833;49.324;8.694;2023-04-22T04:34:30;99079.38;;;12.78;68.40
38716;BME280;24833;49.324;8.694;2023-04-22T04:36:58;99085.53;;;12.79;68.72
38716;BME280;24833;49.324;8.694;2023-04-22T04:39:33;99076.47;;;12.80;68.44
38716;BME280;24833;49.324;8.694;2023-04-22T04:42:01;99066.78;;;12.79;68.10
38716;BME280;24833;49.324;8.694;2023-04-22T04:44:32;99072.97;;;12.79;68.66
38716;BME280;24833;49.324;8.694;2023-04-22T04:47:02;99078.75;;;12.76;68.74
38716;BME280;24833;49.324;8.694;2023-04-22T04:49:30;99076.91;;;12.77;68.62
38716;BME280;24833;49.324;8.694;2023-04-22T04:51:59;99071.34;;;12.78;68.67
38716;BME280;24833;49.324;8.694;2023-04-22T04:54:27;99072.16;;;12.79;68.87
38716;BME280;24833;49.324;8.694;2023-04-22T04:56:55;99084.50;;;12.80;68.56
38716;BME280;24833;49.324;8.694;2023-04-22T04:59:24;99084.50;;;12.80;68.97
38716;BME280;24833;49.324;8.694;2023-04-22T05:01:51;99093.34;;;12.80;68.86
38716;BME280;24833;49.324;8.694;2023-04-22T05:04:18;99090.44;;;12.82;69.11
38716;BME280;24833;49.324;8.694;2023-04-22T05:06:46;99085.91;;;12.82;68.67
38716;BME280;24833;49.324;8.694;2023-04-22T05:09:13;99077.84;;;12.82;68.74
38716;BME280;24833;49.324;8.694;2023-04-22T05:11:42;99077.66;;;12.84;69.23
38716;BME280;24833;49.324;8.694;2023-04-22T05:14:14;99078.47;;;12.85;68.73
38716;BME280;24833;49.324;8.694;2023-04-22T05:16:44;99092.44;;;12.87;69.01
38716;BME280;24833;49.324;8.694;2023-04-22T05:19:12;99096.75;;;12.88;69.03
38716;BME280;24833;49.324;8.694;2023-04-22T05:21:41;99093.63;;;12.91;68.70
38716;BME280;24833;49.324;8.694;2023-04-22T05:24:07;99097.72;;;12.93;68.68
38716;BME280;24833;49.324;8.694;2023-04-22T05:26:35;99101.22;;;12.94;68.65
38716;BME280;24833;49.324;8.694;2023-04-22T05:29:08;99107.16;;;12.96;68.96
38716;BME280;24833;49.324;8.694;2023-04-22T05:31:35;99115.81;;;12.98;68.69
38716;BME280;24833;49.324;8.694;2023-04-22T05:34:02;99113.69;;;13.00;69.06
38716;BME280;24833;49.324;8.694;2023-04-22T05:36:30;99112.41;;;13.02;69.00
38716;BME280;24833;49.324;8.694;2023-04-22T05:38:58;99110.34;;;13.04;69.12
38716;BME280;24833;49.324;8.694;2023-04-22T05:41:26;99124.56;;;13.05;68.94
38716;BME280;24833;49.324;8.694;2023-04-22T05:43:55;99116.28;;;13.06;68.81
38716;BME280;24833;49.324;8.694;2023-04-22T05:46:23;99124.09;;;13.08;68.82
38716;BME280;24833;49.324;8.694;2023-04-22T05:48:50;99117.69;;;13.09;68.87
38716;BME280;24833;49.324;8.694;2023-04-22T05:51:35;99110.25;;;13.11;68.90
38716;BME280;24833;49.324;8.694;2023-04-22T05:54:03;99110.25;;;13.11;68.41
38716;BME280;24833;49.324;8.694;2023-04-22T05:56:30;99104.66;;;13.13;68.24
38716;BME280;24833;49.324;8.694;2023-04-22T05:58:57;99118.06;;;13.13;68.68
38716;BME280;24833;49.324;8.694;2023-04-22T06:01:25;99111.88;;;13.12;68.57
38716;BME280;24833;49.324;8.694;2023-04-22T06:03:57;99110.84;;;13.13;68.68
38716;BME280;24833;49.324;8.694;2023-04-22T06:06:25;99121.31;;;13.15;68.70
38716;BME280;24833;49.324;8.694;2023-04-22T06:08:53;99115.97;;;13.15;68.61
38716;BME280;24833;49.324;8.694;2023-04-22T06:11:21;99125.63;;;13.16;68.51
38716;BME280;24833;49.324;8.694;2023-04-22T06:13:48;99138.81;;;13.17;68.89
38716;BME280;24833;49.324;8.694;2023-04-22T06:16:15;99147.69;;;13.18;68.69
38716;BME280;24833;49.324;8.694;2023-04-22T06:18:42;99154.47;;;13.20;69.35
38716;BME280;24833;49.324;8.694;2023-04-22T06:21:11;99159.16;;;13.25;69.08
38716;BME280;24833;49.324;8.694;2023-04-22T06:23:39;99156.59;;;13.30;69.14
38716;BME280;24833;49.324;8.694;2023-04-22T06:26:06;99154.88;;;13.35;68.73
38716;BME280;24833;49.324;8.694;2023-04-22T06:28:34;99159.31;;;13.42;69.29
38716;BME280;24833;49.324;8.694;2023-04-22T06:31:06;99155.50;;;13.49;69.29
38716;BME280;24833;49.324;8.694;2023-04-22T06:33:34;99150.03;;;13.56;69.22
38716;BME280;24833;49.324;8.694;2023-04-22T06:36:01;99137.94;;;13.65;68.76
38716;BME280;24833;49.324;8.694;2023-04-22T06:38:30;99142.13;;;13.73;68.86
38716;BME280;24833;49.324;8.694;2023-04-22T06:41:17;99147.97;;;13.81;68.67
38716;BME280;24833;49.324;8.694;2023-04-22T06:43:47;99150.53;;;13.88;68.71
38716;BME280;24833;49.324;8.694;2023-04-22T06:46:16;99139.13;;;13.93;68.73
38716;BME280;24833;49.324;8.694;2023-04-22T06:49:02;99144.81;;;13.96;68.46
38716;BME280;24833;49.324;8.694;2023-04-22T06:51:29;99135.50;;;13.99;68.31
38716;BME280;24833;49.324;8.694;2023-04-22T06:53:57;99129.66;;;14.02;68.05
38716;BME280;24833;49.324;8.694;2023-04-22T06:56:24;99143.88;;;14.02;68.48
38716;BME280;24833;49.324;8.694;2023-04-22T06:58:51;99139.34;;;14.03;68.24
38716;BME280;24833;49.324;8.694;2023-04-22T07:01:18;99142.63;;;14.05;68.44
38716;BME280;24833;49.324;8.694;2023-04-22T07:03:46;99145.66;;;14.08;68.29
38716;BME280;24833;49.324;8.694;2023-04-22T07:06:14;99139.59;;;14.13;68.49
38716;BME280;24833;49.324;8.694;2023-04-22T07:08:41;99147.75;;;14.18;68.16
38716;BME280;24833;49.324;8.694;2023-04-22T07:11:09;99145.16;;;14.23;68.45
38716;BME280;24833;49.324;8.694;2023-04-22T07:13:45;99146.34;;;14.27;68.31
38716;BME280;24833;49.324;8.694;2023-04-22T07:16:12;99142.59;;;14.28;68.17
38716;BME280;24833;49.324;8.694;2023-04-22T07:18:39;99143.41;;;14.29;68.13
38716;BME280;24833;49.324;8.694;2023-04-22T07:21:06;99142.34;;;14.30;68.04
38716;BME280;24833;49.324;8.694;2023-04-22T07:23:33;99144.59;;;14.33;68.43
38716;BME280;24833;49.324;8.694;2023-04-22T07:26:00;99145.97;;;14.35;68.44
38716;BME280;24833;49.324;8.694;2023-04-22T07:28:27;99142.84;;;14.38;67.97
38716;BME280;24833;49.324;8.694;2023-04-22T07:30:54;99139.41;;;14.43;68.19
38716;BME280;24833;49.324;8.694;2023-04-22T07:33:21;99133.94;;;14.50;68.24
38716;BME280;24833;49.324;8.694;2023-04-22T07:35:48;99128.44;;;14.56;68.27
38716;BME280;24833;49.324;8.694;2023-04-22T07:38:15;99139.66;;;14.65;68.67
38716;BME280;24833;49.324;8.694;2023-04-22T07:40:43;99139.28;;;14.73;68.53
38716;BME280;24833;49.324;8.694;2023-04-22T07:43:10;99141.59;;;14.81;68.18
38716;BME280;24833;49.324;8.694;2023-04-22T07:45:37;99134.75;;;14.90;68.60
38716;BME280;24833;49.324;8.694;2023-04-22T07:48:04;99133.34;;;14.99;69.10
38716;BME280;24833;49.324;8.694;2023-04-22T07:50:31;99149.19;;;15.13;68.71
38716;BME280;24833;49.324;8.694;2023-04-22T07:52:58;99146.91;;;15.21;68.37
38716;BME280;24833;49.324;8.694;2023-04-22T07:55:25;99143.84;;;15.30;68.14
38716;BME280;24833;49.324;8.694;2023-04-22T07:57:52;99149.88;;;15.37;68.48
38716;BME280;24833;49.324;8.694;2023-04-22T08:00:19;99145.97;;;15.44;67.99
38716;BME280;24833;49.324;8.694;2023-04-22T08:02:46;99150.97;;;15.52;68.41
38716;BME280;24833;49.324;8.694;2023-04-22T08:05:13;99146.50;;;15.58;67.71
38716;BME280;24833;49.324;8.694;2023-04-22T08:07:40;99142.84;;;15.64;68.40
38716;BME280;24833;49.324;8.694;2023-04-22T08:10:08;99151.25;;;15.68;67.78
38716;BME280;24833;49.324;8.694;2023-04-22T08:12:36;99155.09;;;15.72;67.87
38716;BME280;24833;49.324;8.694;2023-04-22T08:15:03;99145.47;;;15.76;67.88
38716;BME280;24833;49.324;8.694;2023-04-22T08:17:30;99152.56;;;15.82;67.69
38716;BME280;24833;49.324;8.694;2023-04-22T08:19:58;99143.50;;;15.88;67.98
38716;BME280;24833;49.324;8.694;2023-04-22T08:22:25;99140.66;;;15.95;68.17
38716;BME280;24833;49.324;8.694;2023-04-22T08:24:53;99147.22;;;16.04;68.35
38716;BME280;24833;49.324;8.694;2023-04-22T08:27:20;99145.19;;;16.11;68.04
38716;BME280;24833;49.324;8.694;2023-04-22T08:29:47;99147.72;;;16.18;68.11
38716;BME280;24833;49.324;8.694;2023-04-22T08:32:15;99139.22;;;16.26;67.64
38716;BME280;24833;49.324;8.694;2023-04-22T08:34:42;99138.78;;;16.34;67.85
38716;BME280;24833;49.324;8.694;2023-04-22T08:37:10;99141.06;;;16.42;67.72
38716;BME280;24833;49.324;8.694;2023-04-22T08:39:37;99147.88;;;16.50;67.36
38716;BME280;24833;49.324;8.694;2023-04-22T08:42:04;99145.59;;;16.58;67.34
38716;BME280;24833;49.324;8.694;2023-04-22T08:44:31;99140.31;;;16.69;67.80
38716;BME280;24833;49.324;8.694;2023-04-22T08:47:01;99145.63;;;16.80;67.49
38716;BME280;24833;49.324;8.694;2023-04-22T08:49:29;99137.88;;;16.89;67.88
38716;BME280;24833;49.324;8.694;2023-04-22T08:51:56;99130.72;;;17.00;68.04
38716;BME280;24833;49.324;8.694;2023-04-22T08:54:23;99130.56;;;17.11;68.00
38716;BME280;24833;49.324;8.694;2023-04-22T08:56:50;99136.59;;;17.19;67.15
38716;BME280;24833;49.324;8.694;2023-04-22T08:59:19;99136.13;;;17.27;66.54
38716;BME280;24833;49.324;8.694;2023-04-22T09:01:52;99129.75;;;17.38;67.53
38716;BME280;24833;49.324;8.694;2023-04-22T09:04:22;99128.50;;;17.51;68.01
38716;BME280;24833;49.324;8.694;2023-04-22T09:06:49;99128.34;;;17.62;67.50
38716;BME280;24833;49.324;8.694;2023-04-22T09:09:16;99128.75;;;17.76;68.33
38716;BME280;24833;49.324;8.694;2023-04-22T09:11:43;99122.38;;;17.87;67.59
38716;BME280;24833;49.324;8.694;2023-04-22T09:14:10;99118.41;;;18.00;68.09
38716;BME280;24833;49.324;8.694;2023-04-22T09:16:40;99121.44;;;18.09;66.97
38716;BME280;24833;49.324;8.694;2023-04-22T09:19:11;99121.75;;;18.17;67.32
38716;BME280;24833;49.324;8.694;2023-04-22T09:21:40;99114.22;;;18.24;66.64
38716;BME280;24833;49.324;8.694;2023-04-22T09:24:11;99109.91;;;18.29;66.72
38716;BME280;24833;49.324;8.694;2023-04-22T09:26:40;99111.84;;;18.33;66.07
38716;BME280;24833;49.324;8.694;2023-04-22T09:29:13;99110.78;;;18.39;66.82
38716;BME280;24833;49.324;8.694;2023-04-22T09:31:40;99103.50;;;18.45;66.94
38716;BME280;24833;49.324;8.694;2023-04-22T09:34:11;99104.91;;;18.52;67.50
38716;BME280;24833;49.324;8.694;2023-04-22T09:36:38;99103.00;;;18.58;66.24
38716;BME280;24833;49.324;8.694;2023-04-22T09:39:06;99095.25;;;18.67;67.19
38716;BME280;24833;49.324;8.694;2023-04-22T09:41:38;99108.00;;;18.76;65.52
38716;BME280;24833;49.324;8.694;2023-04-22T09:44:16;99105.31;;;18.82;64.66
38716;BME280;24833;49.324;8.694;2023-04-22T09:46:48;99100.47;;;18.89;64.90
38716;BME280;24833;49.324;8.694;2023-04-22T09:49:16;99104.25;;;18.93;63.68
38716;BME280;24833;49.324;8.694;2023-04-22T09:51:43;99097.50;;;19.00;66.01
38716;BME280;24833;49.324;8.694;2023-04-22T09:54:10;99094.56;;;19.07;65.38
38716;BME280;24833;49.324;8.694;2023-04-22T09:56:44;99088.84;;;19.19;65.91
38716;BME280;24833;49.324;8.694;2023-04-22T09:59:28;99094.84;;;19.31;66.60
38716;BME280;24833;49.324;8.694;2023-04-22T10:01:58;99088.63;;;19.41;62.74
38716;BME280;24833;49.324;8.694;2023-04-22T10:04:26;99087.28;;;19.48;63.60
38716;BME280;24833;49.324;8.694;2023-04-22T10:06:54;99097.31;;;19.53;62.51
38716;BME280;24833;49.324;8.694;2023-04-22T10:09:23;99095.41;;;19.58;63.67
38716;BME280;24833;49.324;8.694;2023-04-22T10:11:53;99084.84;;;19.72;64.64
38716;BME280;24833;49.324;8.694;2023-04-22T10:14:21;99084.03;;;19.82;63.40
38716;BME280;24833;49.324;8.694;2023-04-22T10:16:53;99080.47;;;19.92;62.59
38716;BME280;24833;49.324;8.694;2023-04-22T10:19:24;99083.72;;;20.04;63.14
38716;BME280;24833;49.324;8.694;2023-04-22T10:21:56;99091.84;;;20.14;63.20
38716;BME280;24833;49.324;8.694;2023-04-22T10:24:29;99097.78;;;20.21;59.69
38716;BME280;24833;49.324;8.694;2023-04-22T10:27:04;99088.50;;;20.32;60.32
38716;BME280;24833;49.324;8.694;2023-04-22T10:29:39;99084.97;;;20.42;59.75
38716;BME280;24833;49.324;8.694;2023-04-22T10:34:38;99076.78;;;20.57;58.64
38716;BME280;24833;49.324;8.694;2023-04-22T10:37:08;99081.38;;;20.62;54.95
38716;BME280;24833;49.324;8.694;2023-04-22T10:39:40;99071.56;;;20.66;58.67
38716;BME280;24833;49.324;8.694;2023-04-22T10:42:11;99080.28;;;20.68;56.37
38716;BME280;24833;49.324;8.694;2023-04-22T10:44:52;99085.94;;;20.72;58.54
38716;BME280;24833;49.324;8.694;2023-04-22T10:47:36;99080.22;;;20.78;59.37
38716;BME280;24833;49.324;8.694;2023-04-22T10:50:21;99081.50;;;20.86;59.15
38716;BME280;24833;49.324;8.694;2023-04-22T10:52:59;99071.94;;;20.99;60.98
38716;BME280;24833;49.324;8.694;2023-04-22T10:55:52;99070.78;;;21.10;59.59
38716;BME280;24833;49.324;8.694;2023-04-22T10:58:21;99077.22;;;21.24;61.13
38716;BME280;24833;49.324;8.694;2023-04-22T11:00:52;99067.03;;;21.45;61.77
38716;BME280;24833;49.324;8.694;2023-04-22T11:03:28;99061.16;;;21.67;63.00
38716;BME280;24833;49.324;8.694;2023-04-22T11:06:16;99067.47;;;21.86;58.25
38716;BME280;24833;49.324;8.694;2023-04-22T11:08:46;99053.91;;;22.10;62.31
38716;BME280;24833;49.324;8.694;2023-04-22T11:11:13;99063.16;;;22.33;62.54
38716;BME280;24833;49.324;8.694;2023-04-22T11:13:42;99067.28;;;22.54;61.70
38716;BME280;24833;49.324;8.694;2023-04-22T11:16:09;99073.31;;;22.70;59.25
38716;BME280;24833;49.324;8.694;2023-04-22T11:18:37;99067.88;;;22.94;60.07
38716;BME280;24833;49.324;8.694;2023-04-22T11:21:05;99058.34;;;23.10;56.03
38716;BME280;24833;49.324;8.694;2023-04-22T11:23:34;99067.91;;;23.27;56.43
38716;BME280;24833;49.324;8.694;2023-04-22T11:26:05;99068.84;;;23.36;53.53
38716;BME280;24833;49.324;8.694;2023-04-22T11:28:32;99062.94;;;23.48;53.46
38716;BME280;24833;49.324;8.694;2023-04-22T11:31:06;99066.66;;;23.71;58.14
38716;BME280;24833;49.324;8.694;2023-04-22T11:33:33;99068.94;;;23.96;57.37
38716;BME280;24833;49.324;8.694;2023-04-22T11:36:01;99067.44;;;24.17;56.64
38716;BME280;24833;49.324;8.694;2023-04-22T11:38:28;99067.06;;;24.38;57.64
38716;BME280;24833;49.324;8.694;2023-04-22T11:40:55;99061.91;;;24.50;56.38
38716;BME280;24833;49.324;8.694;2023-04-22T11:43:25;99049.38;;;24.49;54.31
38716;BME280;24833;49.324;8.694;2023-04-22T11:45:54;99056.84;;;24.57;54.74
38716;BME280;24833;49.324;8.694;2023-04-22T11:48:22;99049.53;;;24.66;54.67
38716;BME280;24833;49.324;8.694;2023-04-22T11:51:09;99051.34;;;24.71;56.34
38716;BME280;24833;49.324;8.694;2023-04-22T11:53:50;99057.63;;;24.71;56.41
38716;BME280;24833;49.324;8.694;2023-04-22T11:56:17;99052.66;;;24.60;53.35
38716;BME280;24833;49.324;8.694;2023-04-22T11:58:43;99045.63;;;24.45;49.56
38716;BME280;24833;49.324;8.694;2023-04-22T12:01:12;99048.16;;;24.28;50.57
38716;BME280;24833;49.324;8.694;2023-04-22T12:03:39;99050.16;;;24.22;50.06
38716;BME280;24833;49.324;8.694;2023-04-22T12:06:07;99048.63;;;24.30;50.49
38716;BME280;24833;49.324;8.694;2023-04-22T12:08:38;99048.84;;;24.33;49.61
38716;BME280;24833;49.324;8.694;2023-04-22T12:11:10;99048.44;;;24.40;48.06
38716;BME280;24833;49.324;8.694;2023-04-22T12:16:10;99054.88;;;24.71;52.28
38716;BME280;24833;49.324;8.694;2023-04-22T12:18:47;99052.84;;;24.77;52.77
38716;BME280;24833;49.324;8.694;2023-04-22T12:21:22;99059.84;;;24.69;49.82
38716;BME280;24833;49.324;8.694;2023-04-22T12:26:25;99062.28;;;24.30;49.53
38716;BME280;24833;49.324;8.694;2023-04-22T12:28:56;99063.09;;;24.16;48.54
38716;BME280;24833;49.324;8.694;2023-04-22T12:31:26;99059.34;;;23.99;47.67
38716;BME280;24833;49.324;8.694;2023-04-22T12:33:54;99065.47;;;23.77;47.55
38716;BME280;24833;49.324;8.694;2023-04-22T12:36:22;99060.84;;;23.58;48.64
38716;BME280;24833;49.324;8.694;2023-04-22T12:38:49;99067.75;;;23.37;47.47
38716;BME280;24833;49.324;8.694;2023-04-22T12:41:17;99071.31;;;23.19;48.22
38716;BME280;24833;49.324;8.694;2023-04-22T12:43:44;99075.88;;;23.04;48.77
38716;BME280;24833;49.324;8.694;2023-04-22T12:46:11;99078.22;;;22.92;47.36
38716;BME280;24833;49.324;8.694;2023-04-22T12:48:38;99070.47;;;22.80;46.88
38716;BME280;24833;49.324;8.694;2023-04-22T12:51:05;99075.81;;;22.67;47.79
38716;BME280;24833;49.324;8.694;2023-04-22T12:53:33;99077.28;;;22.59;48.75
38716;BME280;24833;49.324;8.694;2023-04-22T12:56:00;99079.19;;;22.58;49.50
38716;BME280;24833;49.324;8.694;2023-04-22T12:58:27;99071.16;;;22.48;48.13
38716;BME280;24833;49.324;8.694;2023-04-22T13:00:54;99071.22;;;22.43;49.46
38716;BME280;24833;49.324;8.694;2023-04-22T13:03:21;99064.53;;;22.36;50.08
38716;BME280;24833;49.324;8.694;2023-04-22T13:05:49;99074.94;;;22.28;48.45
38716;BME280;24833;49.324;8.694;2023-04-22T13:08:16;99067.63;;;22.24;50.92
38716;BME280;24833;49.324;8.694;2023-04-22T13:10:43;99066.38;;;22.16;50.99
38716;BME280;24833;49.324;8.694;2023-04-22T13:13:10;99071.34;;;22.09;50.49
38716;BME280;24833;49.324;8.694;2023-04-22T13:15:40;99065.63;;;22.06;50.84